sensor_id;sensor_type;location;lat;lon;timestamp;P1;durP1;ratioP1;P2;durP2;ratioP2
73104;SDS011;61296;50.526;30.792;2023-07-29T00:12:10;7.75;;;3.58;;
73104;SDS011;61296;50.526;30.792;2023-07-29T00:27:29;6.75;;;4.07;;
73104;SDS011;61296;50.526;30.792;2023-07-29T00:42:49;6.22;;;3.80;;
73104;SDS011;61296;50.526;30.792;2023-07-29T00:58:12;5.78;;;3.50;;
73104;SDS011;61296;50.526;30.792;2023-07-29T01:13:33;5.85;;;3.88;;
73104;SDS011;61296;50.526;30.792;2023-07-29T01:28:53;6.20;;;4.05;;
73104;SDS011;61296;50.526;30.792;2023-07-29T01:44:13;5.50;;;3.50;;
73104;SDS011;61296;50.526;30.792;2023-07-29T01:59:34;4.95;;;3.45;;
73104;SDS011;61296;50.526;30.792;2023-07-29T02:14:54;7.65;;;3.90;;
73104;SDS011;61296;50.526;30.792;2023-07-29T02:30:13;5.95;;;2.75;;
73104;SDS011;61296;50.526;30.792;2023-07-29T02:45:33;3.55;;;3.10;;
73104;SDS011;61296;50.526;30.792;2023-07-29T03:00:52;4.30;;;3.20;;
73104;SDS011;61296;50.526;30.792;2023-07-29T03:32:03;4.10;;;3.10;;
73104;SDS011;61296;50.526;30.792;2023-07-29T03:47:28;4.60;;;2.90;;
73104;SDS011;61296;50.526;30.792;2023-07-29T04:02:49;3.83;;;3.00;;
73104;SDS011;61296;50.526;30.792;2023-07-29T04:18:10;6.13;;;3.20;;
73104;SDS011;61296;50.526;30.792;2023-07-29T04:33:30;4.95;;;2.78;;
73104;SDS011;61296;50.526;30.792;2023-07-29T04:48:52;4.47;;;3.35;;
73104;SDS011;61296;50.526;30.792;2023-07-29T05:04:11;4.15;;;2.78;;
73104;SDS011;61296;50.526;30.792;2023-07-29T05:19:31;4.72;;;2.17;;
73104;SDS011;61296;50.526;30.792;2023-07-29T05:34:50;3.22;;;1.98;;
73104;SDS011;61296;50.526;30.792;2023-07-29T05:50:10;3.88;;;1.92;;
73104;SDS011;61296;50.526;30.792;2023-07-29T06:05:29;2.70;;;1.92;;
73104;SDS011;61296;50.526;30.792;2023-07-29T06:20:50;9.05;;;2.50;;
73104;SDS011;61296;50.526;30.792;2023-07-29T06:36:12;3.03;;;2.47;;
73104;SDS011;61296;50.526;30.792;2023-07-29T06:51:32;6.53;;;2.45;;
73104;SDS011;61296;50.526;30.792;2023-07-29T07:06:54;8.02;;;2.55;;
73104;SDS011;61296;50.526;30.792;2023-07-29T07:22:14;4.65;;;2.35;;
73104;SDS011;61296;50.526;30.792;2023-07-29T07:37:35;3.13;;;2.40;;
73104;SDS011;61296;50.526;30.792;2023-07-29T07:52:55;4.35;;;2.92;;
73104;SDS011;61296;50.526;30.792;2023-07-29T08:08:14;2.80;;;2.30;;
73104;SDS011;61296;50.526;30.792;2023-07-29T08:23:35;4.25;;;2.70;;
73104;SDS011;61296;50.526;30.792;2023-07-29T08:38:55;3.90;;;2.60;;
73104;SDS011;61296;50.526;30.792;2023-07-29T08:54:15;6.43;;;3.42;;
73104;SDS011;61296;50.526;30.792;2023-07-29T09:09:34;4.18;;;2.97;;
73104;SDS011;61296;50.526;30.792;2023-07-29T09:24:56;3.67;;;2.83;;
73104;SDS011;61296;50.526;30.792;2023-07-29T09:40:17;11.20;;;3.13;;
73104;SDS011;61296;50.526;30.792;2023-07-29T09:55:37;7.32;;;3.33;;
73104;SDS011;61296;50.526;30.792;2023-07-29T10:10:59;10.48;;;2.90;;
73104;SDS011;61296;50.526;30.792;2023-07-29T10:26:19;4.68;;;3.15;;
73104;SDS011;61296;50.526;30.792;2023-07-29T10:41:55;5.77;;;2.93;;
73104;SDS011;61296;50.526;30.792;2023-07-29T10:57:30;4.90;;;2.60;;
73104;SDS011;61296;50.526;30.792;2023-07-29T11:12:53;3.72;;;2.70;;
73104;SDS011;61296;50.526;30.792;2023-07-29T11:28:14;2.53;;;2.30;;
73104;SDS011;61296;50.526;30.792;2023-07-29T11:43:37;2.20;;;2.00;;
73104;SDS011;61296;50.526;30.792;2023-07-29T11:58:56;3.77;;;2.50;;
73104;SDS011;61296;50.526;30.792;2023-07-29T12:14:16;2.85;;;2.35;;
73104;SDS011;61296;50.526;30.792;2023-07-29T12:29:39;6.35;;;2.20;;
73104;SDS011;61296;50.526;30.792;2023-07-29T12:44:59;3.42;;;2.35;;
73104;SDS011;61296;50.526;30.792;2023-07-29T13:00:19;5.40;;;2.22;;
73104;SDS011;61296;50.526;30.792;2023-07-29T13:15:39;3.35;;;2.67;;
73104;SDS011;61296;50.526;30.792;2023-07-29T13:30:58;3.63;;;2.42;;
73104;SDS011;61296;50.526;30.792;2023-07-29T13:46:18;5.78;;;2.83;;
73104;SDS011;61296;50.526;30.792;2023-07-29T14:01:39;13.65;;;2.90;;
73104;SDS011;61296;50.526;30.792;2023-07-29T14:16:59;4.00;;;2.03;;
73104;SDS011;61296;50.526;30.792;2023-07-29T14:32:19;9.55;;;3.25;;
73104;SDS011;61296;50.526;30.792;2023-07-29T14:47:38;2.50;;;1.90;;
73104;SDS011;61296;50.526;30.792;2023-07-29T15:02:58;3.20;;;2.08;;
73104;SDS011;61296;50.526;30.792;2023-07-29T15:18:18;9.20;;;5.05;;
73104;SDS011;61296;50.526;30.792;2023-07-29T15:33:37;5.18;;;3.03;;
73104;SDS011;61296;50.526;30.792;2023-07-29T15:48:57;5.88;;;3.30;;
73104;SDS011;61296;50.526;30.792;2023-07-29T16:04:18;3.22;;;2.53;;
73104;SDS011;61296;50.526;30.792;2023-07-29T16:19:54;4.05;;;2.80;;
73104;SDS011;61296;50.526;30.792;2023-07-29T16:35:14;7.00;;;2.30;;
73104;SDS011;61296;50.526;30.792;2023-07-29T16:50:33;3.00;;;2.53;;
73104;SDS011;61296;50.526;30.792;2023-07-29T17:05:53;5.88;;;2.60;;
73104;SDS011;61296;50.526;30.792;2023-07-29T17:21:15;10.20;;;2.92;;
73104;SDS011;61296;50.526;30.792;2023-07-29T17:36:35;9.10;;;4.97;;
73104;SDS011;61296;50.526;30.792;2023-07-29T17:51:54;5.80;;;4.35;;
73104;SDS011;61296;50.526;30.792;2023-07-29T18:07:13;5.25;;;3.42;;
73104;SDS011;61296;50.526;30.792;2023-07-29T18:22:33;5.35;;;3.78;;
73104;SDS011;61296;50.526;30.792;2023-07-29T18:37:53;4.95;;;3.65;;
73104;SDS011;61296;50.526;30.792;2023-07-29T18:53:18;4.40;;;3.90;;
73104;SDS011;61296;50.526;30.792;2023-07-29T19:08:37;4.65;;;4.15;;
73104;SDS011;61296;50.526;30.792;2023-07-29T19:23:56;4.65;;;4.00;;
73104;SDS011;61296;50.526;30.792;2023-07-29T19:39:16;5.10;;;4.10;;
73104;SDS011;61296;50.526;30.792;2023-07-29T19:54:35;4.65;;;4.18;;
73104;SDS011;61296;50.526;30.792;2023-07-29T20:09:55;6.88;;;4.50;;
73104;SDS011;61296;50.526;30.792;2023-07-29T20:25:15;4.65;;;4.25;;
73104;SDS011;61296;50.526;30.792;2023-07-29T20:40:34;5.03;;;4.47;;
73104;SDS011;61296;50.526;30.792;2023-07-29T20:55:54;4.97;;;4.30;;
73104;SDS011;61296;50.526;30.792;2023-07-29T21:11:14;7.45;;;5.70;;
73104;SDS011;61296;50.526;30.792;2023-07-29T21:26:35;7.30;;;5.75;;
73104;SDS011;61296;50.526;30.792;2023-07-29T21:41:54;6.53;;;5.70;;
73104;SDS011;61296;50.526;30.792;2023-07-29T21:57:16;7.57;;;5.93;;
73104;SDS011;61296;50.526;30.792;2023-07-29T22:12:36;6.28;;;5.65;;
73104;SDS011;61296;50.526;30.792;2023-07-29T22:28:01;8.70;;;6.17;;
73104;SDS011;61296;50.526;30.792;2023-07-29T22:43:20;7.20;;;5.43;;
73104;SDS011;61296;50.526;30.792;2023-07-29T22:58:42;6.75;;;5.50;;
73104;SDS011;61296;50.526;30.792;2023-07-29T23:14:01;6.20;;;5.25;;
73104;SDS011;61296;50.526;30.792;2023-07-29T23:29:22;7.53;;;5.60;;
73104;SDS011;61296;50.526;30.792;2023-07-29T23:44:41;8.23;;;5.80;;
